EHGG 200055Z AUTO 27005KT 230V320 9999 SCT009 OVC010 12/11 Q1021 EHGG 200025Z AUTO 31007KT 270V360 9999 SCT008/// OVC010/// 13/11 Q1021 EHGG 192355Z AUTO 30008KT 270V340 9999 FEW008 OVC010 13/11 Q1021 EHGG 192325Z AUTO 30008KT 260V330 9999 FEW009 BKN010 OVC013 13/11 Q1021 EHGG 192255Z AUTO 30007KT 260V350 9999 FEW009 OVC011 13/11 Q1020 EHGG 192225Z AUTO 27005KT 240V300 8000 FEW008 BKN009 OVC011 13/12 Q1020 EHGG 192155Z AUTO 27006KT 240V310 8000 FEW008 SCT010 13/12 Q1020 EHGG 192125Z AUTO 27010KT 240V300 9999 FEW009 BKN010 OVC014 14/12 Q1020 EHGG 192055Z AUTO 28007KT 240V310 9999 BKN010 OVC012 14/12 Q1019 EHGG 192025Z AUTO 27009KT 230V310 9999 BKN010 OVC013 15/12 Q1019 BECMG SCT018 EHGG 191955Z AUTO 26010KT 230V290 9000 FEW010 BKN013 15/13 Q1019 BECMG SCT018 EHGG 191925Z AUTO 27009KT 230V310 9999 FEW010 BKN013 OVC015 16/14 Q1018 BECMG SCT018 EHGG 191855Z AUTO 26011KT 230V290 9999 OVC011 17/15 Q1018 TEMPO BKN009 EHGG 191825Z AUTO 27011KT 220V310 9999 SCT009 SCT012 BKN014 18/15 Q1018 TEMPO BKN009 EHGG 191755Z AUTO 24011KT 210V280 9999 FEW017 SCT023 BKN026 19/16 Q1017 BECMG 28012KT TEMPO BKN009 EHGG 191725Z AUTO 23009KT 200V260 9999 NSC 20/17 Q1017 BECMG 28012KT TEMPO BKN009 EHGG 191655Z AUTO 21007KT 170V240 9999 FEW012 20/17 Q1017 NOSIG EHGG 191625Z AUTO 15003KT 110V200 9999 FEW007 19/17 Q1016 NOSIG EHGG 191555Z AUTO 11004KT 060V150 9999 NSC 19/18 Q1016 NOSIG EHGG 191525Z AUTO VRB02KT 9999 NSC 18/17 Q1016 NOSIG EHGG 191455Z AUTO 07003KT 020V130 9999 -RA SCT015CB 17/16 Q1016 NOSIG EHGG 191425Z AUTO 07004KT 9000 SHRA BKN015CB 17/16 Q1017 TEMPO 6000 EHGG 191355Z AUTO 27010KT 240V310 9999 RA BKN015CB 17/16 Q1018 RETS TEMPO 4000 EHGG 191325Z AUTO 30013KT 260V330 9999 SHRA FEW004 SCT015CB BKN034 BKN038 18/16 Q1017 REDZ TEMPO 24025G35KT 2500 BKN070CB EHGG 191255Z AUTO 24006KT 200V280 9999 TS FEW028CB 23/16 Q1016 TEMPO 24025G35KT 2500 +TSRA BKN070CB EHGG 191225Z AUTO 16007KT 120V210 9999 NSC 23/16 Q1016 TEMPO FM1300 24017G27KT 2500 TSRA BKN070CB EHGG 191155Z AUTO 13007KT 080V180 9999 NSC 23/16 Q1016 RETS NOSIG EHGG 191125Z AUTO 12009KT 070V170 9999 NSC 22/15 Q1015 NOSIG EHGG 191055Z AUTO 13007KT 060V180 9999 NSC 22/16 Q1016 NOSIG EHGG 191025Z AUTO 10006KT 060V140 9999 NSC 21/16 Q1017 NOSIG EHGG 190955Z AUTO VRB02KT 9999 NSC 21/16 Q1018 NOSIG EHGG 190925Z AUTO 07005KT 040V100 9999 NSC 20/16 Q1017 NOSIG EHGG 190855Z AUTO 09007KT 050V120 9999 NSC 19/16 Q1017 NOSIG EHGG 190825Z AUTO 05006KT 010V100 9999 FEW015CB 18/16 Q1017 NOSIG EHGG 190755Z AUTO 34005KT 290V010 9999 NSC 18/15 Q1017 NOSIG EHGG 190725Z AUTO 28005KT 190V360 9000 FEW015CB 18/16 Q1017 BECMG CAVOK EHGG 190655Z AUTO 31008KT 270V360 9999 FEW015CB 19/15 Q1017 TEMPO 4000 SHRA SCT070CB EHGG 190625Z AUTO 27009KT 230V310 9999 NSC 19/15 Q1017 TEMPO 4000 SHRA SCT070CB EHGG 190555Z AUTO 22008KT 180V270 8000 NSC 19/15 Q1017 TEMPO FM0630 5000 SHRA SCT070CB EHGG 190525Z AUTO 15006KT 070V210 5000 NSC 17/15 Q1017 BECMG 9999 EHGG 190455Z AUTO 11007KT 070V150 3900 BR NSC 16/14 Q1016 BECMG 7000 NSW EHGG 190425Z AUTO 12006KT 090V190 3400 BR NSC 15/14 Q1017 BECMG 7000 NSW EHGG 190355Z AUTO 10004KT 070V130 2700 BR NSC 15/14 Q1017 EHGG 190325Z AUTO 09005KT 2500 BR NSC 15/14 Q1017 EHGG 190255Z AUTO 08004KT 2500 BR NSC 14/14 Q1017 EHGG 190225Z AUTO 09005KT 2900 BR NSC 14/14 Q1017 EHGG 190155Z AUTO 07005KT 2600 BR NSC 13/13 Q1018 EHGG 190125Z AUTO 06005KT 2400 BR NSC 13/13 Q1018 EHGG 190055Z AUTO 05004KT 2700 BR NSC 13/12 Q1018 EHGG 190025Z AUTO 06002KT 3600 BR NSC 13/13 Q1018 EHGG 182355Z AUTO 06003KT 3600 BR NSC 13/13 Q1018 EHGG 182325Z AUTO VRB02KT 4700 BR NSC 13/12 Q1019 EHGG 182255Z AUTO 34003KT 4400 BR NSC 13/12 Q1019 EHGG 182225Z AUTO 06002KT 7000 NSC 13/12 Q1019 EHGG 182155Z AUTO 06003KT 9999 NSC 14/13 Q1019 EHGG 182125Z AUTO 08003KT 9999 NSC 14/13 Q1019 EHGG 182055Z AUTO VRB02KT 9999 NSC 14/13 Q1020 EHGG 182025Z AUTO 35001KT 9999 NSC 14/12 Q1020 NOSIG EHGG 181955Z AUTO VRB02KT 9999 NSC 15/13 Q1020 NOSIG EHGG 181925Z AUTO 34003KT 290V010 9999 NSC 17/14 Q1020 NOSIG EHGG 181855Z AUTO 33003KT 9999 NSC 18/14 Q1020 NOSIG EHGG 181825Z AUTO 31005KT 9999 NSC 18/14 Q1020 NOSIG EHGG 181755Z AUTO 31006KT 280V350 9999 NSC 19/14 Q1020 NOSIG EHGG 181725Z AUTO 32008KT 280V360 9999 NSC 19/13 Q1020 NOSIG EHGG 181655Z AUTO 32009KT 280V360 9999 NSC 20/14 Q1020 NOSIG EHGG 181625Z AUTO 32008KT 280V010 9999 NSC 20/14 Q1020 NOSIG EHGG 181555Z AUTO 31011KT 270V360 9999 NSC 21/15 Q1020 NOSIG EHGG 181525Z AUTO 32008KT 9999 NSC 22/16 Q1020 NOSIG EHGG 181455Z AUTO 32011KT 280V360 9999 NSC 23/16 Q1020 NOSIG EHGG 181425Z AUTO 27007KT 230V320 9999 NSC 25/17 Q1020 NOSIG EHGG 181355Z AUTO 25006KT 200V310 9999 NSC 26/17 Q1020 NOSIG EHGG 181325Z AUTO 26009KT 230V300 9999 NSC 26/16 Q1020 NOSIG

METAR Messwerte "GRONINGEN/EELDE" EHGG

Zurück zur Übersicht

Ortsname
Ländercode / m ü. NN
Zeit Temperatur Taupunkt Rel.
Luftfeuchte
Luftdruck:
Altimeter
NN
Station
Wind in Beaufort
(Knoten)
Sichtweite
(Meter)
Wolken
(Meter über Grund)
Wettererscheinung
GRONINGEN/EELDE
NL 2
Fr 20.05. 02:55121194 %1021
1021
1021
W 2 (5)
SW - NW
>= 10000Bedeckt (300)
Wolkig (270)
 
GRONINGEN/EELDE
NL 2
Fr 20.05. 02:25131188 %1021
1021
1021
NW 3 (7)
W - N
>= 10000Bedeckt (300)
Wolkig (240)
 
GRONINGEN/EELDE
NL 2
Fr 20.05. 01:55131188 %1021
1021
1021
WNW 3 (8)
W - NNW
>= 10000Bedeckt (300)
Leicht bewölkt (240)
 
GRONINGEN/EELDE
NL 2
Fr 20.05. 01:25131188 %1021
1021
1021
WNW 3 (8)
W - NNW
>= 10000Bedeckt (400)
Stark bewölkt (300)
Leicht bewölkt (270)
 
GRONINGEN/EELDE
NL 2
Fr 20.05. 00:55131188 %1020
1020
1020
WNW 3 (7)
W - N
>= 10000Bedeckt (340)
Leicht bewölkt (270)
 
GRONINGEN/EELDE
NL 2
Fr 20.05. 00:25131294 %1020
1020
1020
W 2 (5)
WSW - WNW
8000Bedeckt (340)
Stark bewölkt (270)
Leicht bewölkt (240)
 
GRONINGEN/EELDE
NL 2
Do 19.05. 23:55131294 %1020
1020
1020
W 2 (6)
WSW - NW
8000Wolkig (300)
Leicht bewölkt (240)
 
GRONINGEN/EELDE
NL 2
Do 19.05. 23:25141288 %1020
1020
1020
W 3 (10)
WSW - WNW
>= 10000Bedeckt (430)
Stark bewölkt (300)
Leicht bewölkt (270)
 
GRONINGEN/EELDE
NL 2
Do 19.05. 22:55141288 %1019
1019
1019
W 3 (7)
WSW - NW
>= 10000Bedeckt (370)
Stark bewölkt (300)
 
GRONINGEN/EELDE
NL 2
Do 19.05. 22:25151282 %1019
1019
1019
W 3 (9)
SW - NW
>= 10000Bedeckt (400)
Stark bewölkt (300)
 
GRONINGEN/EELDE
NL 2
Do 19.05. 21:55151388 %1019
1019
1019
W 3 (10)
SW - WNW
9000Stark bewölkt (400)
Leicht bewölkt (300)
 
GRONINGEN/EELDE
NL 2
Do 19.05. 21:25161488 %1018
1018
1018
W 3 (9)
SW - NW
>= 10000Bedeckt (460)
Stark bewölkt (400)
Leicht bewölkt (300)
 
GRONINGEN/EELDE
NL 2
Do 19.05. 20:55171588 %1018
1018
1018
W 4 (11)
SW - WNW
>= 10000Bedeckt (340) 
GRONINGEN/EELDE
NL 2
Do 19.05. 20:25181583 %1018
1018
1018
W 4 (11)
SW - NW
>= 10000Stark bewölkt (430)
Wolkig (370)
Wolkig (270)
 
GRONINGEN/EELDE
NL 2
Do 19.05. 19:55191683 %1017
1017
1017
WSW 4 (11)
SSW - W
Bald Übergang zu:
W 4 (12)
>= 10000Stark bewölkt (790)
Wolkig (700)
Leicht bewölkt (520)
 
GRONINGEN/EELDE
NL 2
Do 19.05. 19:25201783 %1017
1017
1017
SW 3 (9)
SSW - W
Bald Übergang zu:
W 4 (12)
>= 10000Nicht signifikant 
GRONINGEN/EELDE
NL 2
Do 19.05. 18:55201783 %1017
1017
1017
SSW 3 (7)
S - WSW
>= 10000Leicht bewölkt (370) 
GRONINGEN/EELDE
NL 2
Do 19.05. 18:25191788 %1016
1016
1016
SSO 2 (3)
OSO - SSW
>= 10000Leicht bewölkt (210) 
GRONINGEN/EELDE
NL 2
Do 19.05. 17:55191894 %1016
1016
1016
OSO 2 (4)
ONO - SSO
>= 10000Nicht signifikant 
GRONINGEN/EELDE
NL 2
Do 19.05. 17:25181794 %1016
1016
1016
Uml 1 (2)>= 10000Nicht signifikant 
GRONINGEN/EELDE
NL 2
Do 19.05. 16:55171694 %1016
1016
1016
ONO 2 (3)
NNO - SO
>= 10000Wolkig Cb (460)Regen (schwach)
GRONINGEN/EELDE
NL 2
Do 19.05. 16:25171694 %1017
1017
1017
ONO 2 (4)9000Stark bewölkt Cb (460)Regen-Schauer
GRONINGEN/EELDE
NL 2
Do 19.05. 15:55171694 %1018
1018
1018
W 3 (10)
WSW - NW
>= 10000Stark bewölkt Cb (460)Regen
GRONINGEN/EELDE
NL 2
Do 19.05. 15:25181688 %1017
1017
1017
WNW 4 (13)
W - NNW
Bald zeitweise:
WSW 6 (25) - 8 (35)
>= 10000
Bald zeitweise: 2500
Stark bewölkt (1200)
Stark bewölkt (1000)
Wolkig Cb (460)
Leicht bewölkt (120)
Regen-Schauer
GRONINGEN/EELDE
NL 2
Do 19.05. 14:55231665 %1016
1016
1016
WSW 2 (6)
SSW - W
Bald zeitweise:
WSW 6 (25) - 8 (35)
>= 10000
Bald zeitweise: 2500
Leicht bewölkt Cb (850) Bald zeitweise: Gewitter mit Regen (stark)
GRONINGEN/EELDE
NL 2
Do 19.05. 14:25231665 %1016
1016
1016
SSO 3 (7)
OSO - SSW
Ab 15:00 zeitweise:
WSW 5 (17) - 7 (27)
>= 10000
Ab 15:00 zeitweise: 2500
Nicht signifikant Ab 15:00 zeitweise: Gewitter mit Regen
GRONINGEN/EELDE
NL 2
Do 19.05. 13:55231665 %1016
1016
1016
SO 3 (7)
O - S
>= 10000Nicht signifikant 
GRONINGEN/EELDE
NL 2
Do 19.05. 13:25221565 %1015
1015
1015
OSO 3 (9)
ONO - S
>= 10000Nicht signifikant 
GRONINGEN/EELDE
NL 2
Do 19.05. 12:55221669 %1016
1016
1016
SO 3 (7)
ONO - S
>= 10000Nicht signifikant 
GRONINGEN/EELDE
NL 2
Do 19.05. 12:25211673 %1017
1017
1017
O 2 (6)
ONO - SO
>= 10000Nicht signifikant 
GRONINGEN/EELDE
NL 2
Do 19.05. 11:55211673 %1018
1018
1018
Uml 1 (2)>= 10000Nicht signifikant 
GRONINGEN/EELDE
NL 2
Do 19.05. 11:25201678 %1017
1017
1017
ONO 2 (5)
NO - O
>= 10000Nicht signifikant 
GRONINGEN/EELDE
NL 2
Do 19.05. 10:55191683 %1017
1017
1017
O 3 (7)
NO - OSO
>= 10000Nicht signifikant 
GRONINGEN/EELDE
NL 2
Do 19.05. 10:25181688 %1017
1017
1017
NO 2 (6)
N - O
>= 10000Leicht bewölkt Cb (460) 
GRONINGEN/EELDE
NL 2
Do 19.05. 09:55181583 %1017
1017
1017
NNW 2 (5)
WNW - N
>= 10000Nicht signifikant 
GRONINGEN/EELDE
NL 2
Do 19.05. 09:25181688 %1017
1017
1017
W 2 (5)
S - N
9000Leicht bewölkt Cb (460) 
GRONINGEN/EELDE
NL 2
Do 19.05. 08:55191578 %1017
1017
1017
NW 3 (8)
W - N
>= 10000
Bald zeitweise: 4000
Leicht bewölkt Cb (460) Bald zeitweise: Regen-Schauer
GRONINGEN/EELDE
NL 2
Do 19.05. 08:25191578 %1017
1017
1017
W 3 (9)
SW - NW
>= 10000
Bald zeitweise: 4000
Nicht signifikant Bald zeitweise: Regen-Schauer
GRONINGEN/EELDE
NL 2
Do 19.05. 07:55191578 %1017
1017
1017
SW 3 (8)
S - W
8000
Ab 08:30 zeitweise: 5000
Nicht signifikant Ab 08:30 zeitweise: Regen-Schauer
GRONINGEN/EELDE
NL 2
Do 19.05. 07:25171588 %1017
1017
1017
SSO 2 (6)
ONO - SSW
5000Nicht signifikant 
GRONINGEN/EELDE
NL 2
Do 19.05. 06:55161488 %1016
1016
1016
OSO 3 (7)
ONO - SSO
3900
Bald Übergang zu: 7000
Nicht signifikantNebeldunst
GRONINGEN/EELDE
NL 2
Do 19.05. 06:25151494 %1017
1017
1017
OSO 2 (6)
O - S
3400
Bald Übergang zu: 7000
Nicht signifikantNebeldunst
GRONINGEN/EELDE
NL 2
Do 19.05. 05:55151494 %1017
1017
1017
O 2 (4)
ONO - SO
2700Nicht signifikantNebeldunst
GRONINGEN/EELDE
NL 2
Do 19.05. 05:25151494 %1017
1017
1017
O 2 (5)2500Nicht signifikantNebeldunst
GRONINGEN/EELDE
NL 2
Do 19.05. 04:551414100 %1017
1017
1017
O 2 (4)2500Nicht signifikantNebeldunst
GRONINGEN/EELDE
NL 2
Do 19.05. 04:251414100 %1017
1017
1017
O 2 (5)2900Nicht signifikantNebeldunst
GRONINGEN/EELDE
NL 2
Do 19.05. 03:551313100 %1018
1018
1018
ONO 2 (5)2600Nicht signifikantNebeldunst
GRONINGEN/EELDE
NL 2
Do 19.05. 03:251313100 %1018
1018
1018
ONO 2 (5)2400Nicht signifikantNebeldunst
GRONINGEN/EELDE
NL 2
Do 19.05. 02:55131294 %1018
1018
1018
NO 2 (4)2700Nicht signifikantNebeldunst
GRONINGEN/EELDE
NL 2
Do 19.05. 02:251313100 %1018
1018
1018
ONO 1 (2)3600Nicht signifikantNebeldunst
GRONINGEN/EELDE
NL 2
Do 19.05. 01:551313100 %1018
1018
1018
ONO 2 (3)3600Nicht signifikantNebeldunst
GRONINGEN/EELDE
NL 2
Do 19.05. 01:25131294 %1019
1019
1019
Uml 1 (2)4700Nicht signifikantNebeldunst
GRONINGEN/EELDE
NL 2
Do 19.05. 00:55131294 %1019
1019
1019
NNW 2 (3)4400Nicht signifikantNebeldunst
GRONINGEN/EELDE
NL 2
Do 19.05. 00:25131294 %1019
1019
1019
ONO 1 (2)7000Nicht signifikant 
GRONINGEN/EELDE
NL 2
Mi 18.05. 23:55141394 %1019
1019
1019
ONO 2 (3)>= 10000Nicht signifikant 
GRONINGEN/EELDE
NL 2
Mi 18.05. 23:25141394 %1019
1019
1019
O 2 (3)>= 10000Nicht signifikant 
GRONINGEN/EELDE
NL 2
Mi 18.05. 22:55141394 %1020
1020
1020
Uml 1 (2)>= 10000Nicht signifikant 
GRONINGEN/EELDE
NL 2
Mi 18.05. 22:25141288 %1020
1020
1020
N 1 (1)>= 10000Nicht signifikant 
GRONINGEN/EELDE
NL 2
Mi 18.05. 21:55151388 %1020
1020
1020
Uml 1 (2)>= 10000Nicht signifikant 
GRONINGEN/EELDE
NL 2
Mi 18.05. 21:25171482 %1020
1020
1020
NNW 2 (3)
WNW - N
>= 10000Nicht signifikant 
GRONINGEN/EELDE
NL 2
Mi 18.05. 20:55181477 %1020
1020
1020
NNW 2 (3)>= 10000Nicht signifikant 
GRONINGEN/EELDE
NL 2
Mi 18.05. 20:25181477 %1020
1020
1020
NW 2 (5)>= 10000Nicht signifikant 
GRONINGEN/EELDE
NL 2
Mi 18.05. 19:55191473 %1020
1020
1020
NW 2 (6)
W - N
>= 10000Nicht signifikant 
GRONINGEN/EELDE
NL 2
Mi 18.05. 19:25191368 %1020
1020
1020
NW 3 (8)
W - N
>= 10000Nicht signifikant 
GRONINGEN/EELDE
NL 2
Mi 18.05. 18:55201468 %1020
1020
1020
NW 3 (9)
W - N
>= 10000Nicht signifikant 
GRONINGEN/EELDE
NL 2
Mi 18.05. 18:25201468 %1020
1020
1020
NW 3 (8)
W - N
>= 10000Nicht signifikant 
GRONINGEN/EELDE
NL 2
Mi 18.05. 17:55211569 %1020
1020
1020
NW 4 (11)
W - N
>= 10000Nicht signifikant 
GRONINGEN/EELDE
NL 2
Mi 18.05. 17:25221669 %1020
1020
1020
NW 3 (8)>= 10000Nicht signifikant 
GRONINGEN/EELDE
NL 2
Mi 18.05. 16:55231665 %1020
1020
1020
NW 4 (11)
W - N
>= 10000Nicht signifikant 
GRONINGEN/EELDE
NL 2
Mi 18.05. 16:25251761 %1020
1020
1020
W 3 (7)
SW - NW
>= 10000Nicht signifikant 
GRONINGEN/EELDE
NL 2
Mi 18.05. 15:55261758 %1020
1020
1020
WSW 2 (6)
SSW - NW
>= 10000Nicht signifikant 
GRONINGEN/EELDE
NL 2
Mi 18.05. 15:25261654 %1020
1020
1020
W 3 (9)
SW - WNW
>= 10000Nicht signifikant 

Altimeter: Einstellung am Altimeter (Höhenmesser), die Höhe 0 muss auf diesen Luftdruckwert zeigen, damit das Gerät die Stationshöhe richtig anzeigt.

NN: Luftdruck reduziert auf "Normal Null", auf Meereshöhe, dieser von der Temperatur abhängige Wert wird bisweilen unkorrekt einfach als "Luftdruck" bezeichnet. Eigentlich nur eine fiktive Größe, die es erlaubt, Stationen auf unterschiedlichen Höhen miteinander zu vergleichen.

Station: Realer Luftdruck an der Station.